Time;durP1;ratioP1;P1;durP2;ratioP2;P2;SDS_P1;SDS_P2;PMS_P1;PMS_P2;Temp;Humidity;BMP_temperature;BMP_pressure;BME280_temperature;BME280_humidity;BME280_pressure;Samples;Min_cycle;Max_cycle;Signal;HPM_P1;HPM_P2
2022/01/07 00:02:06;;;;;;;9.68;2.60;;;;;;;2.12;100.00;97897.97;5082466;28;20020;-82
2022/01/07 00:04:35;;;;;;;8.32;2.30;;;;;;;2.12;100.00;97909.13;5077355;28;20104;-81
2022/01/07 00:07:05;;;;;;;8.73;2.05;;;;;;;2.18;100.00;97901.69;5087789;28;20111;-81
2022/01/07 00:09:31;;;;;;;10.07;2.25;;;;;;;2.01;100.00;97899.16;5086749;28;20039;-82
2022/01/07 00:11:57;;;;;;;7.93;1.88;;;;;;;1.95;100.00;97886.88;5061388;28;20386;-82
2022/01/07 00:14:23;;;;;;;11.30;2.22;;;;;;;1.93;100.00;97894.00;5065574;28;20032;-82
2022/01/07 00:16:48;;;;;;;11.60;2.40;;;;;;;1.92;100.00;97913.09;5085143;28;20466;-83
2022/01/07 00:19:17;;;;;;;11.20;2.25;;;;;;;1.91;100.00;97895.94;5081782;28;20036;-82
2022/01/07 00:21:42;;;;;;;8.88;1.90;;;;;;;1.86;100.00;97893.84;5078291;28;20032;-82
2022/01/07 00:24:08;;;;;;;12.50;1.85;;;;;;;1.89;100.00;97887.53;5082673;28;20494;-82
2022/01/07 00:26:33;;;;;;;10.55;1.77;;;;;;;1.88;100.00;97904.03;5084802;28;20036;-83
2022/01/07 00:28:59;;;;;;;9.30;1.95;;;;;;;1.90;100.00;97889.16;5080037;28;20024;-82
2022/01/07 00:31:25;;;;;;;16.38;2.65;;;;;;;1.87;100.00;97885.13;5063646;28;20562;-82
2022/01/07 00:33:51;;;;;;;9.10;2.20;;;;;;;1.84;100.00;97896.63;5065636;28;20035;-81
2022/01/07 00:36:16;;;;;;;8.10;1.60;;;;;;;1.84;100.00;97894.03;5082832;28;20036;-82
2022/01/07 00:38:42;;;;;;;15.30;2.13;;;;;;;1.77;100.00;97869.81;5082542;28;20370;-82
2022/01/07 00:41:07;;;;;;;8.57;2.00;;;;;;;1.81;100.00;97870.25;5084657;28;20496;-81
2022/01/07 00:43:33;;;;;;;8.50;2.20;;;;;;;1.76;100.00;97869.97;5081405;28;20040;-81
2022/01/07 00:45:59;;;;;;;11.32;1.92;;;;;;;1.91;100.00;97865.72;5081597;28;20372;-81
2022/01/07 00:48:25;;;;;;;5.85;1.58;;;;;;;1.95;100.00;97845.44;5089426;28;20043;-82
2022/01/07 00:50:51;;;;;;;6.93;1.35;;;;;;;2.06;100.00;97855.44;5081561;28;20540;-80
2022/01/07 00:53:17;;;;;;;13.80;2.95;;;;;;;1.94;100.00;97841.25;5081912;28;20034;-81
2022/01/07 00:55:43;;;;;;;8.55;1.65;;;;;;;1.99;100.00;97872.63;5080861;28;20485;-81
2022/01/07 00:58:09;;;;;;;5.63;1.90;;;;;;;1.98;100.00;97850.31;5084651;28;20033;-81
2022/01/07 01:00:35;;;;;;;9.38;1.95;;;;;;;2.02;100.00;97846.41;5080293;28;20048;-81
2022/01/07 01:03:01;;;;;;;7.70;1.80;;;;;;;1.80;100.00;97828.06;5079497;28;20482;-82
2022/01/07 01:05:27;;;;;;;10.40;1.90;;;;;;;1.99;100.00;97854.53;5077965;28;20038;-84
2022/01/07 01:07:54;;;;;;;8.13;1.85;;;;;;;2.02;100.00;97850.78;5080386;28;20021;-81
2022/01/07 01:10:24;;;;;;;9.30;1.77;;;;;;;1.93;100.00;97847.41;5076256;28;20497;-82
2022/01/07 01:12:51;;;;;;;12.32;1.60;;;;;;;1.88;100.00;97836.75;5070855;28;20028;-83
2022/01/07 01:15:21;;;;;;;12.73;1.98;;;;;;;1.90;100.00;97853.75;5081190;28;20055;-82
2022/01/07 01:17:53;;;;;;;14.02;2.13;;;;;;;1.79;100.00;97831.63;5080535;28;20025;-82
2022/01/07 01:20:19;;;;;;;8.32;2.10;;;;;;;1.72;100.00;97820.31;5063839;28;20024;-82
2022/01/07 01:22:45;;;;;;;7.53;1.88;;;;;;;1.79;100.00;97847.16;5081073;28;20028;-82
2022/01/07 01:25:12;;;;;;;9.73;2.13;;;;;;;1.85;100.00;97853.41;5081696;28;20439;-82
2022/01/07 01:27:37;;;;;;;13.13;1.95;;;;;;;1.83;100.00;97853.59;5080325;28;20028;-82
2022/01/07 01:30:07;;;;;;;9.48;1.60;;;;;;;1.88;100.00;97867.81;5078154;28;20059;-82
2022/01/07 01:32:32;;;;;;;6.57;1.88;;;;;;;1.85;100.00;97838.72;5081213;28;20028;-81
2022/01/07 01:34:58;;;;;;;4.40;1.40;;;;;;;1.85;100.00;97869.75;5077914;28;20493;-81
2022/01/07 01:37:23;;;;;;;7.20;1.75;;;;;;;1.88;100.00;97871.22;5082701;28;20035;-82
2022/01/07 01:39:49;;;;;;;5.80;1.98;;;;;;;1.83;100.00;97874.31;5082312;28;21741;-81
2022/01/07 01:42:14;;;;;;;12.45;1.70;;;;;;;1.78;100.00;97845.53;5082283;28;20032;-82
2022/01/07 01:44:40;;;;;;;10.45;1.90;;;;;;;1.76;100.00;97857.03;5079867;28;20024;-81
2022/01/07 01:47:06;;;;;;;11.13;2.28;;;;;;;1.88;100.00;97870.41;5081962;28;20122;-81
2022/01/07 01:49:32;;;;;;;9.32;1.63;;;;;;;1.94;100.00;97859.38;5081680;28;20052;-82
2022/01/07 01:51:57;;;;;;;6.68;1.75;;;;;;;1.97;100.00;97861.66;5075320;28;20116;-82
2022/01/07 01:54:23;;;;;;;11.88;2.10;;;;;;;1.91;100.00;97845.00;5062408;28;20032;-82
2022/01/07 01:56:48;;;;;;;9.73;1.92;;;;;;;1.91;100.00;97854.53;5079993;28;20039;-82
2022/01/07 01:59:23;;;;;;;6.20;2.13;;;;;;;1.99;100.00;97867.47;5081950;28;20032;-81
2022/01/07 02:01:48;;;;;;;8.40;1.92;;;;;;;1.95;100.00;97855.81;5078161;28;20034;-82
2022/01/07 02:04:14;;;;;;;5.07;1.55;;;;;;;1.98;100.00;97860.66;5079730;28;20038;-82
2022/01/07 02:06:40;;;;;;;7.15;1.80;;;;;;;1.96;100.00;97855.66;5081430;28;20024;-83
2022/01/07 02:09:05;;;;;;;11.57;2.30;;;;;;;2.09;100.00;97878.41;5081487;28;20025;-81
2022/01/07 02:11:34;;;;;;;7.70;1.70;;;;;;;2.12;100.00;97870.28;5077905;28;20032;-82
2022/01/07 02:14:00;;;;;;;8.07;1.85;;;;;;;2.20;100.00;97879.81;5080479;28;20036;-82
2022/01/07 02:16:27;;;;;;;10.35;1.92;;;;;;;2.19;100.00;97872.22;5078096;28;20028;-82
2022/01/07 02:18:54;;;;;;;10.93;2.03;;;;;;;2.32;100.00;97885.41;5080114;28;20052;-82
2022/01/07 02:21:20;;;;;;;17.33;1.85;;;;;;;2.26;100.00;97867.97;5061719;28;20524;-81
2022/01/07 02:23:45;;;;;;;13.73;2.13;;;;;;;2.27;100.00;97879.94;5064825;28;20059;-82
2022/01/07 02:26:12;;;;;;;7.55;1.80;;;;;;;2.12;100.00;97865.13;5083142;28;20110;-81
2022/01/07 02:28:39;;;;;;;10.85;1.90;;;;;;;1.92;100.00;97861.31;5065753;28;20047;-82
2022/01/07 02:31:05;;;;;;;9.98;2.13;;;;;;;1.96;100.00;97883.31;5082511;28;20086;-81
2022/01/07 02:33:31;;;;;;;8.55;1.90;;;;;;;1.84;100.00;97880.28;5080265;28;20028;-83
2022/01/07 02:35:56;;;;;;;13.98;1.83;;;;;;;1.84;100.00;97870.75;5065249;28;20060;-82
2022/01/07 02:38:22;;;;;;;9.23;2.00;;;;;;;1.89;100.00;97879.78;5082049;28;20469;-81
2022/01/07 02:40:47;;;;;;;7.60;1.73;;;;;;;1.95;100.00;97859.22;5059743;28;20478;-81
2022/01/07 02:43:13;;;;;;;11.13;2.47;;;;;;;1.94;100.00;97861.97;5084722;28;20067;-79
2022/01/07 02:45:39;;;;;;;15.48;1.98;;;;;;;1.69;100.00;97852.53;5076335;28;20032;-79
2022/01/07 02:48:04;;;;;;;12.48;1.50;;;;;;;1.70;100.00;97872.25;5079748;28;20040;-80
2022/01/07 02:50:35;;;;;;;9.77;1.60;;;;;;;1.71;100.00;97876.44;5075131;28;20024;-82
2022/01/07 02:53:02;;;;;;;13.30;1.85;;;;;;;1.68;100.00;97860.44;5080941;28;21518;-81
2022/01/07 02:55:28;;;;;;;10.85;2.80;;;;;;;1.65;100.00;97871.13;5078118;28;20082;-81
2022/01/07 02:57:54;;;;;;;5.15;1.60;;;;;;;1.60;100.00;97863.06;5084367;28;20032;-81
2022/01/07 03:00:22;;;;;;;9.70;2.45;;;;;;;1.47;100.00;97872.13;5085267;28;20035;-81
2022/01/07 03:02:51;;;;;;;11.50;2.33;;;;;;;1.41;100.00;97852.09;5089792;28;20031;-81
2022/01/07 03:05:18;;;;;;;16.98;2.00;;;;;;;1.56;100.00;97878.09;5062289;28;20062;-81
2022/01/07 03:07:47;;;;;;;11.65;1.70;;;;;;;1.54;100.00;97860.13;5084122;28;20082;-82
2022/01/07 03:10:14;;;;;;;11.07;2.03;;;;;;;1.73;100.00;97865.91;5065038;28;20036;-82
2022/01/07 03:12:42;;;;;;;14.13;1.90;;;;;;;1.90;100.00;97873.63;5081834;28;20069;-82
2022/01/07 03:15:13;;;;;;;12.32;1.77;;;;;;;1.74;100.00;97849.41;5065232;28;20099;-81
2022/01/07 03:17:43;;;;;;;9.82;1.90;;;;;;;1.82;100.00;97854.56;5087963;28;20024;-81
2022/01/07 03:20:12;;;;;;;6.82;1.85;;;;;;;1.71;100.00;97835.06;5085174;28;20472;-82
2022/01/07 03:22:41;;;;;;;15.68;2.30;;;;;;;1.81;100.00;97850.38;5085376;28;20115;-81
2022/01/07 03:25:08;;;;;;;10.57;2.22;;;;;;;1.85;100.00;97846.47;5065275;28;20537;-80
2022/01/07 03:27:34;;;;;;;8.93;2.17;;;;;;;1.91;100.00;97864.88;5084498;28;20170;-82
2022/01/07 03:29:59;;;;;;;11.68;1.90;;;;;;;1.94;100.00;97851.59;5064881;28;20111;-82
2022/01/07 03:32:25;;;;;;;11.00;1.95;;;;;;;1.84;100.00;97844.03;5083328;28;20579;-82
2022/01/07 03:34:52;;;;;;;7.68;1.75;;;;;;;1.63;100.00;97813.59;5063484;28;20064;-82
2022/01/07 03:37:18;;;;;;;9.90;1.65;;;;;;;1.66;100.00;97821.00;5083383;28;20024;-83
2022/01/07 03:39:44;;;;;;;7.80;1.33;;;;;;;1.53;100.00;97827.50;5082510;28;20055;-80
2022/01/07 03:42:10;;;;;;;11.10;2.10;;;;;;;1.56;100.00;97827.16;5081500;28;20024;-81
2022/01/07 03:44:36;;;;;;;14.90;1.90;;;;;;;1.54;100.00;97817.97;5061054;28;20040;-81
2022/01/07 03:47:02;;;;;;;5.53;1.52;;;;;;;1.67;100.00;97835.53;5083882;28;20039;-81
2022/01/07 03:49:28;;;;;;;12.55;1.95;;;;;;;1.59;100.00;97845.94;5082692;28;20028;-81
2022/01/07 03:51:54;;;;;;;5.90;1.67;;;;;;;1.68;100.00;97850.09;5083678;28;20024;-80
2022/01/07 03:54:20;;;;;;;7.90;1.88;;;;;;;1.65;100.00;97856.38;5081938;28;20027;-82
2022/01/07 03:56:46;;;;;;;9.07;1.67;;;;;;;1.50;100.00;97824.44;5085738;28;20119;-82
2022/01/07 03:59:11;;;;;;;9.05;1.60;;;;;;;1.55;100.00;97853.19;5067728;28;20104;-80
2022/01/07 04:01:37;;;;;;;7.95;2.03;;;;;;;1.61;100.00;97854.31;5084984;28;20493;-80
2022/01/07 04:04:03;;;;;;;12.15;1.95;;;;;;;1.55;100.00;97856.59;5081835;28;20143;-81
2022/01/07 04:06:29;;;;;;;8.40;1.67;;;;;;;1.47;100.00;97830.75;5083383;28;20047;-81
2022/01/07 04:08:55;;;;;;;12.55;2.60;;;;;;;1.43;100.00;97832.84;5082840;28;20135;-81
2022/01/07 04:11:20;;;;;;;7.90;1.92;;;;;;;1.48;100.00;97840.13;5084071;28;20038;-81
2022/01/07 04:13:47;;;;;;;10.32;2.28;;;;;;;1.49;100.00;97831.38;5087502;28;20024;-81
2022/01/07 04:16:13;;;;;;;11.18;1.70;;;;;;;1.45;100.00;97834.47;5079460;28;20059;-81
2022/01/07 04:18:41;;;;;;;9.18;2.20;;;;;;;1.39;100.00;97818.66;5083044;28;20020;-80
2022/01/07 04:21:09;;;;;;;6.68;1.35;;;;;;;1.44;100.00;97813.00;5079339;28;20020;-81
2022/01/07 04:23:35;;;;;;;9.43;2.25;;;;;;;1.35;100.00;97808.78;5082911;28;20033;-80
2022/01/07 04:26:01;;;;;;;10.88;1.92;;;;;;;1.37;100.00;97824.94;5081096;28;20481;-81
2022/01/07 04:28:26;;;;;;;10.60;1.85;;;;;;;1.40;100.00;97817.69;5082675;28;20031;-79
2022/01/07 04:30:52;;;;;;;9.70;1.83;;;;;;;1.42;100.00;97822.69;5064058;28;20028;-80
2022/01/07 04:33:25;;;;;;;13.00;2.22;;;;;;;1.42;100.00;97822.69;5080125;28;20041;-80
2022/01/07 04:35:52;;;;;;;10.73;1.60;;;;;;;1.35;100.00;97819.13;5066294;28;20456;-80
2022/01/07 04:38:18;;;;;;;5.47;1.70;;;;;;;1.36;100.00;97811.22;5079398;28;20103;-79
2022/01/07 04:40:44;;;;;;;12.57;2.25;;;;;;;1.30;100.00;97798.16;5082769;28;20039;-80
2022/01/07 04:43:10;;;;;;;3.38;1.58;;;;;;;1.32;100.00;97809.94;5080137;28;20023;-80
2022/01/07 04:45:36;;;;;;;9.45;1.60;;;;;;;1.39;100.00;97810.88;5080654;28;20034;-80
2022/01/07 04:48:02;;;;;;;11.07;1.73;;;;;;;1.43;100.00;97827.69;5082396;28;20036;-80
2022/01/07 04:50:29;;;;;;;6.45;1.70;;;;;;;1.33;100.00;97826.25;5082388;28;20048;-81
2022/01/07 04:52:54;;;;;;;12.23;2.47;;;;;;;1.37;100.00;97818.00;5064784;28;20039;-81
2022/01/07 04:55:29;;;;;;;10.00;1.92;;;;;;;1.29;100.00;97815.47;5083058;28;20024;-82
2022/01/07 04:57:55;;;;;;;;;;;;;;;1.37;100.00;97833.53;5085678;28;20024;-81
2022/01/07 05:00:23;;;;;;;5.13;1.75;;;;;;;1.34;100.00;97830.44;5065398;28;19934;-82
2022/01/07 05:02:49;;;;;;;9.07;1.58;;;;;;;1.26;100.00;97826.94;5078121;28;20035;-81
2022/01/07 05:05:15;;;;;;;7.10;1.50;;;;;;;1.18;100.00;97824.38;5080258;28;20035;-81
2022/01/07 05:07:40;;;;;;;9.00;1.77;;;;;;;1.20;100.00;97806.91;5077234;28;20435;-81
2022/01/07 05:10:08;;;;;;;9.70;1.60;;;;;;;1.17;100.00;97812.38;5083979;28;20032;-81
2022/01/07 05:12:35;;;;;;;10.20;1.60;;;;;;;1.20;100.00;97804.31;5083019;28;20029;-81
2022/01/07 05:15:02;;;;;;;14.50;2.35;;;;;;;1.04;100.00;97776.72;5065123;28;20044;-81
2022/01/07 05:17:28;;;;;;;12.93;2.20;;;;;;;1.06;100.00;97792.84;5083396;28;20042;-81
2022/01/07 05:19:54;;;;;;;9.55;1.55;;;;;;;1.02;100.00;97783.03;5079600;28;20032;-82
2022/01/07 05:22:20;;;;;;;5.55;1.65;;;;;;;1.14;100.00;97810.13;5083243;28;20028;-82
2022/01/07 05:24:46;;;;;;;10.38;1.63;;;;;;;1.15;100.00;97793.66;5062517;28;20107;-82
2022/01/07 05:27:12;;;;;;;9.55;1.70;;;;;;;1.20;100.00;97811.25;5083436;28;20115;-81
2022/01/07 05:29:38;;;;;;;6.30;2.00;;;;;;;1.22;100.00;97819.66;5081971;28;20032;-82
2022/01/07 05:32:07;;;;;;;8.93;1.88;;;;;;;1.23;100.00;97813.50;5082924;28;20078;-81
2022/01/07 05:34:33;;;;;;;9.43;1.42;;;;;;;1.28;100.00;97806.88;5078284;28;20031;-81
2022/01/07 05:37:00;;;;;;;9.30;2.03;;;;;;;1.34;100.00;97812.34;5081551;28;20619;-80
2022/01/07 05:39:25;;;;;;;13.88;1.80;;;;;;;1.31;100.00;97803.16;5066051;28;20120;-81
2022/01/07 05:41:51;;;;;;;10.45;1.65;;;;;;;1.38;100.00;97817.03;5079213;28;20526;-80
2022/01/07 05:44:17;;;;;;;10.77;2.05;;;;;;;1.36;100.00;97824.16;5078449;28;20478;-81
2022/01/07 05:46:43;;;;;;;9.43;1.55;;;;;;;1.33;100.00;97810.75;5081901;28;20486;-82
2022/01/07 05:49:09;;;;;;;7.82;1.45;;;;;;;1.23;100.00;97806.56;5082880;28;20085;-81
2022/01/07 05:51:35;;;;;;;9.35;1.80;;;;;;;1.41;100.00;97834.00;5080611;28;20367;-81
2022/01/07 05:54:00;;;;;;;6.72;1.95;;;;;;;1.39;100.00;97835.97;5084733;28;20043;-81
2022/01/07 05:56:26;;;;;;;7.10;1.50;;;;;;;1.34;100.00;97822.69;5080315;28;20040;-80
2022/01/07 05:58:55;;;;;;;7.75;1.38;;;;;;;1.34;100.00;97825.28;5083193;28;20033;-82
2022/01/07 06:01:21;;;;;;;11.00;1.88;;;;;;;1.29;100.00;97825.81;5081971;28;20048;-81
2022/01/07 06:03:46;;;;;;;6.60;1.50;;;;;;;1.33;100.00;97836.59;5082998;28;20169;-82
2022/01/07 06:06:12;;;;;;;11.95;2.42;;;;;;;1.36;100.00;97826.75;5079865;28;20025;-81
2022/01/07 06:08:37;;;;;;;9.52;1.77;;;;;;;1.56;100.00;97844.47;5081701;28;20035;-82
2022/01/07 06:11:03;;;;;;;10.02;1.75;;;;;;;1.64;100.00;97838.47;5064939;28;20032;-80
2022/01/07 06:13:29;;;;;;;9.57;1.60;;;;;;;1.69;100.00;97828.41;5076867;28;20538;-81
2022/01/07 06:15:54;;;;;;;12.52;1.40;;;;;;;1.94;100.00;97859.38;5079684;28;20028;-79
2022/01/07 06:18:20;;;;;;;7.47;1.77;;;;;;;1.90;100.00;97839.97;5079684;28;20027;-82
2022/01/07 06:20:45;;;;;;;8.13;1.83;;;;;;;1.78;100.00;97834.38;5082052;28;20024;-81
2022/01/07 06:23:11;;;;;;;8.23;1.70;;;;;;;1.67;100.00;97844.13;5082474;28;20021;-83
2022/01/07 06:25:37;;;;;;;10.45;1.30;;;;;;;1.67;100.00;97843.31;5082607;28;20110;-84
2022/01/07 06:28:03;;;;;;;3.75;1.75;;;;;;;1.58;100.00;97842.53;5065117;28;20028;-82
2022/01/07 06:30:29;;;;;;;4.38;1.02;;;;;;;1.48;100.00;97829.00;5078763;28;20024;-84
2022/01/07 06:32:55;;;;;;;6.47;1.52;;;;;;;1.39;100.00;97795.38;5089268;28;20038;-84
2022/01/07 06:35:20;;;;;;;8.65;1.80;;;;;;;1.52;100.00;97830.25;5084641;28;20032;-84
2022/01/07 06:37:47;;;;;;;6.97;1.35;;;;;;;1.33;100.00;97810.75;5088119;28;20093;-85
2022/01/07 06:40:13;;;;;;;11.02;1.45;;;;;;;1.37;100.00;97832.69;5084647;28;20032;-84
2022/01/07 06:42:39;;;;;;;6.35;1.40;;;;;;;1.36;100.00;97813.00;5083771;28;20024;-80
2022/01/07 06:45:06;;;;;;;4.43;1.10;;;;;;;1.52;100.00;97825.88;5068972;28;20037;-81
2022/01/07 06:47:32;;;;;;;10.88;1.30;;;;;;;1.46;100.00;97816.22;5081748;28;20060;-79
2022/01/07 06:49:58;;;;;;;3.67;1.20;;;;;;;1.48;100.00;97798.75;5084675;28;20390;-79
2022/01/07 06:52:24;;;;;;;6.15;1.80;;;;;;;1.52;100.00;97805.19;5064535;28;20020;-80
2022/01/07 06:54:50;;;;;;;8.38;1.70;;;;;;;1.64;100.00;97817.78;5081858;28;20059;-81
2022/01/07 06:57:16;;;;;;;7.45;1.42;;;;;;;1.50;100.00;97814.91;5083857;28;20063;-80
2022/01/07 06:59:41;;;;;;;6.97;1.63;;;;;;;1.48;100.00;97808.31;5083300;28;20035;-81
2022/01/07 07:02:07;;;;;;;6.15;1.50;;;;;;;1.46;100.00;97810.22;5083767;28;20466;-83
2022/01/07 07:04:33;;;;;;;7.10;1.35;;;;;;;1.50;100.00;97811.53;5080985;28;22070;-81
2022/01/07 07:06:58;;;;;;;6.20;1.35;;;;;;;1.42;100.00;97794.25;5084351;28;20032;-81
2022/01/07 07:09:24;;;;;;;8.77;1.80;;;;;;;1.40;100.00;97788.44;5080099;28;20020;-81
2022/01/07 07:11:50;;;;;;;10.05;2.38;;;;;;;1.44;100.00;97789.72;5082096;28;20032;-81
2022/01/07 07:14:16;;;;;;;6.78;1.55;;;;;;;1.43;100.00;97821.72;5082840;28;20031;-80
2022/01/07 07:16:43;;;;;;;8.20;1.45;;;;;;;1.47;100.00;97822.19;5084003;28;20112;-81
2022/01/07 07:19:09;;;;;;;9.27;1.25;;;;;;;1.58;100.00;97846.91;5063665;28;20372;-80
2022/01/07 07:21:35;;;;;;;5.53;1.50;;;;;;;1.60;100.00;97858.69;5065808;28;20051;-79
2022/01/07 07:24:04;;;;;;;6.20;1.40;;;;;;;1.71;100.00;97852.34;5082180;28;20043;-79
2022/01/07 07:26:31;;;;;;;7.03;1.38;;;;;;;1.62;100.00;97843.78;5067471;28;20082;-78
2022/01/07 07:28:56;;;;;;;4.63;1.08;;;;;;;1.70;100.00;97859.31;5085210;28;20025;-79
2022/01/07 07:31:22;;;;;;;5.47;1.00;;;;;;;1.77;100.00;97858.63;5079863;28;20139;-83
2022/01/07 07:36:30;;;;;;;6.78;1.33;;;;;;;1.73;100.00;97858.16;5083572;28;20078;-81
2022/01/07 07:39:06;;;;;;;8.45;0.90;;;;;;;1.79;100.00;97856.69;5080891;28;20024;-79
2022/01/07 07:41:33;;;;;;;5.72;1.10;;;;;;;1.71;100.00;97860.09;5076239;28;20067;-83
2022/01/07 07:43:59;;;;;;;7.35;1.50;;;;;;;1.76;100.00;97863.00;5083275;28;20032;-83
2022/01/07 07:46:27;;;;;;;1.40;0.73;;;;;;;1.39;100.00;97836.75;5083711;28;20030;-86
2022/01/07 07:48:54;;;;;;;4.05;1.10;;;;;;;1.32;100.00;97840.16;5065660;28;20044;-85
2022/01/07 07:51:20;;;;;;;3.78;0.98;;;;;;;1.21;100.00;97867.97;5086378;28;20099;-84
2022/01/07 07:53:46;;;;;;;4.68;1.15;;;;;;;1.14;100.00;97851.47;5066603;28;20071;-86
2022/01/07 07:56:14;;;;;;;5.75;1.23;;;;;;;1.06;100.00;97879.94;5086914;28;20062;-83
2022/01/07 07:58:40;;;;;;;5.97;1.30;;;;;;;0.71;100.00;97849.88;5081503;28;20028;-81
2022/01/07 08:01:06;;;;;;;5.20;1.38;;;;;;;0.78;100.00;97880.22;5083428;28;20086;-79
2022/01/07 08:03:32;;;;;;;6.28;1.25;;;;;;;0.72;100.00;97871.38;5062069;28;20386;-79
2022/01/07 08:05:58;;;;;;;4.15;1.77;;;;;;;0.71;100.00;97880.88;5079792;28;20029;-81
2022/01/07 08:08:24;;;;;;;3.58;1.85;;;;;;;0.79;100.00;97897.38;5083287;28;20036;-80
2022/01/07 08:10:53;;;;;;;4.57;1.40;;;;;;;0.76;100.00;97898.50;5082542;28;20482;-82
2022/01/07 08:16:00;;;;;;;5.45;2.25;;;;;;;0.79;100.00;97912.88;5079883;28;20028;-80
2022/01/07 08:18:29;;;;;;;2.90;0.93;;;;;;;0.82;100.00;97897.84;5082396;28;20039;-82
2022/01/07 08:20:57;;;;;;;6.43;1.98;;;;;;;0.79;100.00;97905.13;5078941;28;20028;-82
2022/01/07 08:23:23;;;;;;;4.05;1.90;;;;;;;0.65;100.00;97872.94;5082149;28;20042;-82
2022/01/07 08:25:49;;;;;;;4.82;1.60;;;;;;;0.83;100.00;97899.44;5078252;28;20111;-83
2022/01/07 08:28:16;;;;;;;7.53;1.95;;;;;;;0.87;100.00;97888.78;5083233;28;20028;-81
2022/01/07 08:36:17;;;;;;;4.78;1.63;;;;;;;0.98;100.00;97884.16;5080219;28;20028;-81
2022/01/07 08:38:43;;;;;;;8.45;2.28;;;;;;;0.98;100.00;97886.72;5077633;28;20047;-81
2022/01/07 08:41:09;;;;;;;5.80;1.73;;;;;;;0.95;100.00;97863.78;5083406;28;20032;-81
2022/01/07 08:43:35;;;;;;;5.82;2.03;;;;;;;0.91;100.00;97859.91;5061952;28;20043;-81
2022/01/07 08:46:01;;;;;;;3.75;1.60;;;;;;;1.08;100.00;97875.41;5079864;28;20490;-82
2022/01/07 08:48:28;;;;;;;13.63;1.85;;;;;;;1.15;100.00;97886.69;5078177;28;20048;-81
2022/01/07 08:50:53;;;;;;;8.07;1.35;;;;;;;1.31;100.00;97887.66;5060725;28;20035;-81
2022/01/07 08:53:20;;;;;;;8.05;1.60;;;;;;;1.46;100.00;97893.78;5080472;28;20377;-80
2022/01/07 08:55:47;;;;;;;5.55;1.30;;;;;;;1.42;100.00;97866.66;5082136;28;20366;-81
2022/01/07 08:58:13;;;;;;;3.33;1.50;;;;;;;1.39;100.00;97877.31;5083467;28;20064;-80
2022/01/07 09:00:39;;;;;;;7.15;2.00;;;;;;;1.35;100.00;97881.19;5081392;28;20039;-80
2022/01/07 09:03:05;;;;;;;7.60;1.52;;;;;;;1.41;100.00;97893.47;5083982;28;20028;-80
2022/01/07 09:05:32;;;;;;;5.32;1.35;;;;;;;1.30;100.00;97873.94;5079575;28;20390;-81
2022/01/07 09:07:57;;;;;;;4.93;1.60;;;;;;;1.46;100.00;97883.44;5072279;28;20108;-79
2022/01/07 09:10:23;;;;;;;5.13;1.50;;;;;;;1.47;100.00;97889.41;5080402;28;20123;-79
2022/01/07 09:12:49;;;;;;;8.32;1.50;;;;;;;1.56;100.00;97904.75;5078002;28;20032;-79
2022/01/07 09:15:15;;;;;;;5.25;1.50;;;;;;;1.43;100.00;97899.28;5080942;28;20028;-77
2022/01/07 09:17:41;;;;;;;11.63;1.65;;;;;;;1.54;100.00;97919.63;5075841;28;20141;-77
2022/01/07 09:20:08;;;;;;;4.47;1.10;;;;;;;1.68;100.00;97979.44;5064591;28;20098;-78
2022/01/07 09:22:34;;;;;;;9.38;1.40;;;;;;;1.37;100.00;97926.59;5060862;28;20411;-77
2022/01/07 09:25:00;;;;;;;7.00;1.58;;;;;;;0.88;100.00;97908.50;5083898;28;20131;-77
2022/01/07 09:27:26;;;;;;;7.97;1.88;;;;;;;0.88;100.00;97942.91;5063869;28;20084;-78
2022/01/07 09:29:52;;;;;;;9.10;1.98;;;;;;;0.80;100.00;97955.81;5079878;28;20040;-78
2022/01/07 09:32:17;;;;;;;9.77;1.63;;;;;;;0.52;100.00;97932.81;5080669;28;20378;-78
2022/01/07 09:34:43;;;;;;;16.52;3.05;;;;;;;0.54;100.00;97954.13;5082155;28;20134;-79
2022/01/07 09:37:09;;;;;;;6.57;2.20;;;;;;;0.45;100.00;97962.81;5081030;28;20108;-79
2022/01/07 09:39:36;;;;;;;8.07;2.47;;;;;;;0.41;100.00;97950.22;5084106;28;20111;-79
2022/01/07 09:42:06;;;;;;;12.18;2.85;;;;;;;0.47;100.00;97971.22;5085654;28;20039;-79
2022/01/07 09:44:40;;;;;;;16.30;2.10;;;;;;;0.45;100.00;97967.97;5079180;28;20129;-79
2022/01/07 09:47:05;;;;;;;;;;;;;;;0.40;100.00;97978.75;5079295;28;20028;-79
2022/01/07 09:49:34;;;;;;;7.25;1.95;;;;;;;0.33;100.00;97970.81;5071510;28;20312;-80
2022/01/07 09:52:01;;;;;;;6.05;1.80;;;;;;;0.35;100.00;97968.91;5080708;28;20040;-78
2022/01/07 09:54:27;;;;;;;11.00;2.13;;;;;;;0.36;100.00;97973.09;5083631;28;20435;-79
2022/01/07 09:56:52;;;;;;;7.75;2.35;;;;;;;0.14;100.00;97928.81;5080917;28;20035;-79
2022/01/07 09:59:19;;;;;;;9.60;2.20;;;;;;;-0.04;100.00;97907.44;5079029;28;20408;-80
2022/01/07 10:01:57;;;;;;;6.57;2.03;;;;;;;0.38;100.00;97968.59;5081257;28;20068;-79
2022/01/07 10:04:41;;;;;;;6.10;2.13;;;;;;;0.38;100.00;97949.72;5080444;28;20036;-79
2022/01/07 10:07:22;;;;;;;5.07;2.30;;;;;;;0.48;100.00;97965.88;5088590;28;21796;-80
2022/01/07 10:09:57;;;;;;;7.25;2.38;;;;;;;0.59;100.00;97985.47;5084781;28;20111;-80
2022/01/07 10:12:22;;;;;;;6.68;2.97;;;;;;;0.59;100.00;98000.13;5085947;28;20508;-80
2022/01/07 10:15:15;;;;;;;13.85;3.10;;;;;;;0.65;100.00;98000.31;5084184;28;20032;-82
2022/01/07 10:17:52;;;;;;;9.38;2.72;;;;;;;0.66;100.00;98001.94;5064781;28;20032;-81
2022/01/07 10:20:22;;;;;;;9.45;2.50;;;;;;;0.71;100.00;97997.09;5083840;28;20119;-79
2022/01/07 10:23:09;;;;;;;13.57;3.30;;;;;;;0.67;100.00;97988.06;5082327;28;20052;-80
2022/01/07 10:25:37;;;;;;;10.80;3.00;;;;;;;0.71;100.00;97988.56;5082135;28;20462;-79
2022/01/07 10:28:06;;;;;;;11.77;3.55;;;;;;;0.70;100.00;97977.41;5064937;28;20051;-80
2022/01/07 10:30:38;;;;;;;12.55;3.78;;;;;;;0.83;100.00;97995.03;5082625;28;20024;-81
2022/01/07 10:33:28;;;;;;;11.68;3.08;;;;;;;0.77;100.00;97979.34;5088681;28;20390;-80
2022/01/07 10:35:56;;;;;;;7.05;3.20;;;;;;;0.72;100.00;97992.75;5070239;28;20056;-79
2022/01/07 10:38:25;;;;;;;8.43;4.60;;;;;;;0.73;100.00;97978.06;5064973;28;20024;-81
2022/01/07 10:40:54;;;;;;;7.40;3.20;;;;;;;0.83;100.00;97989.09;5087109;28;20028;-82
2022/01/07 10:43:32;;;;;;;9.30;3.72;;;;;;;1.13;100.00;98005.78;5083917;28;20030;-80
2022/01/07 10:46:12;;;;;;;10.63;4.43;;;;;;;1.14;100.00;97978.13;5080302;28;20363;-80
2022/01/07 10:48:50;;;;;;;12.63;4.45;;;;;;;1.26;100.00;97992.38;5065713;28;20064;-80
2022/01/07 10:51:23;;;;;;;14.18;3.65;;;;;;;1.46;100.00;97994.66;5084451;28;20063;-80
2022/01/07 10:53:55;;;;;;;8.83;3.07;;;;;;;1.47;100.00;97993.69;5066379;28;20099;-80
2022/01/07 10:56:35;;;;;;;13.40;3.27;;;;;;;1.24;100.00;97994.31;5066503;28;20062;-81
2022/01/07 10:59:02;;;;;;;11.73;3.60;;;;;;;0.98;100.00;97997.03;5084421;28;20111;-81
2022/01/07 11:01:32;;;;;;;11.30;3.00;;;;;;;0.95;100.00;97992.97;5080435;28;20107;-81
2022/01/07 11:04:01;;;;;;;14.73;3.28;;;;;;;1.03;100.00;97992.19;5065676;28;20398;-82
2022/01/07 11:06:29;;;;;;;15.73;3.05;;;;;;;1.22;100.00;97979.91;5083443;28;20031;-80
2022/01/07 11:08:56;;;;;;;16.88;3.45;;;;;;;1.42;100.00;98006.28;5082195;28;20080;-81
2022/01/07 11:11:24;;;;;;;7.50;2.75;;;;;;;1.50;100.00;97964.91;5083957;28;20028;-81
2022/01/07 11:13:54;;;;;;;9.82;3.22;;;;;;;1.42;100.00;97968.28;5087880;28;20029;-78
2022/01/07 11:16:20;;;;;;;13.95;3.70;;;;;;;1.55;100.00;97974.75;5086641;28;20043;-81
2022/01/07 11:18:47;;;;;;;8.18;4.00;;;;;;;1.39;100.00;97941.97;5084220;28;20029;-79
2022/01/07 11:21:17;;;;;;;9.07;4.15;;;;;;;1.42;100.00;97928.72;5066279;28;20028;-81
2022/01/07 11:23:43;;;;;;;13.50;4.13;;;;;;;1.58;100.00;97932.25;5082732;28;20031;-80
2022/01/07 11:26:11;;;;;;;11.10;4.50;;;;;;;1.57;100.00;97936.59;5080378;28;20024;-79
2022/01/07 11:28:54;;;;;;;12.43;4.43;;;;;;;1.37;100.00;97918.03;5082849;28;20035;-79
2022/01/07 11:31:19;;;;;;;17.50;4.47;;;;;;;1.31;100.00;97939.38;5084035;28;20480;-79
2022/01/07 11:33:45;;;;;;;13.95;5.07;;;;;;;1.28;100.00;97943.09;5084355;28;20107;-81
2022/01/07 11:36:13;;;;;;;14.32;4.60;;;;;;;1.24;100.00;97947.78;5065422;28;20028;-80
2022/01/07 11:38:40;;;;;;;14.05;3.90;;;;;;;1.32;100.00;97990.09;5084899;28;20031;-80
2022/01/07 11:41:11;;;;;;;10.98;3.80;;;;;;;1.23;100.00;98000.47;5084985;28;20032;-79
2022/01/07 11:43:43;;;;;;;12.43;3.83;;;;;;;0.90;100.00;97978.94;5081322;28;20047;-80